Time;durP1;ratioP1;P1;durP2;ratioP2;P2;SDS_P1;SDS_P2;PMS_P1;PMS_P2;Temp;Humidity;BMP_temperature;BMP_pressure;BME280_temperature;BME280_humidity;BME280_pressure;Samples;Min_cycle;Max_cycle;Signal;HPM_P1;HPM_P2
2022/03/04 00:02:03;;;;;;;22.83;12.45;;;1.50;1.00;;;;;;7355675;19;20036;-61
2022/03/04 00:04:37;;;;;;;20.95;11.77;;;1.30;1.00;;;;;;7364131;19;20142;-61
2022/03/04 00:07:07;;;;;;;23.67;12.02;;;1.50;1.00;;;;;;7365259;19;20025;-60
2022/03/04 00:09:38;;;;;;;21.55;11.82;;;1.40;1.00;;;;;;7388093;19;20031;-60
2022/03/04 00:12:08;;;;;;;22.30;12.88;;;1.40;1.00;;;;;;7355269;19;20007;-60
2022/03/04 00:14:41;;;;;;;21.58;11.98;;;1.30;1.00;;;;;;7361568;19;20017;-61
2022/03/04 00:17:10;;;;;;;22.95;12.15;;;1.10;1.00;;;;;;7363857;19;20481;-62
2022/03/04 00:19:40;;;;;;;21.05;11.75;;;1.00;1.00;;;;;;7365498;19;20075;-60
2022/03/04 00:22:11;;;;;;;21.83;12.30;;;1.00;1.00;;;;;;7355491;19;20434;-61
2022/03/04 00:24:41;;;;;;;21.35;11.82;;;0.90;1.00;;;;;;7384176;19;20018;-61
2022/03/04 00:27:11;;;;;;;23.23;12.27;;;0.80;1.00;;;;;;7363584;19;20344;-61
2022/03/04 00:29:44;;;;;;;19.77;12.35;;;0.80;1.00;;;;;;7365290;19;20081;-61
2022/03/04 00:32:17;;;;;;;24.35;12.82;;;0.70;1.00;;;;;;7355943;19;20018;-61
2022/03/04 00:34:46;;;;;;;22.90;13.30;;;0.70;1.00;;;;;;7362986;19;20581;-61
2022/03/04 00:37:16;;;;;;;25.90;13.60;;;0.60;1.00;;;;;;7361757;19;20546;-61
2022/03/04 00:39:46;;;;;;;22.27;12.75;;;0.70;1.00;;;;;;7386330;19;20510;-61
2022/03/04 00:42:16;;;;;;;22.98;12.40;;;0.70;1.00;;;;;;7354874;19;20074;-62
2022/03/04 00:44:49;;;;;;;22.30;13.82;;;0.80;1.00;;;;;;7360438;19;20014;-61
2022/03/04 00:47:19;;;;;;;24.63;13.43;;;0.80;1.00;;;;;;7362939;19;20648;-59
2022/03/04 00:49:49;;;;;;;22.42;12.73;;;0.70;1.00;;;;;;7363847;19;20006;-61
2022/03/04 00:52:19;;;;;;;28.73;13.52;;;0.60;1.00;;;;;;7357294;19;20578;-60
2022/03/04 00:54:49;;;;;;;21.67;12.90;;;0.50;1.00;;;;;;7380194;19;20036;-61
2022/03/04 00:57:19;;;;;;;20.45;12.30;;;0.40;1.00;;;;;;7382799;19;20423;-60
2022/03/04 00:59:51;;;;;;;20.42;12.32;;;0.40;1.00;;;;;;7362021;19;20074;-60
2022/03/04 01:02:21;;;;;;;24.80;13.30;;;0.50;1.00;;;;;;7354921;19;20014;-61
2022/03/04 01:04:51;;;;;;;19.67;12.65;;;0.30;1.00;;;;;;7363666;19;20370;-61
2022/03/04 01:07:21;;;;;;;21.60;13.05;;;0.10;1.00;;;;;;7360079;19;20080;-59
2022/03/04 01:09:51;;;;;;;22.92;12.52;;;0.10;1.00;;;;;;7362098;19;20107;-61
2022/03/04 01:12:21;;;;;;;24.48;13.32;;;0.20;1.00;;;;;;7376023;19;20016;-61
2022/03/04 01:14:55;;;;;;;23.30;13.52;;;0.10;1.00;;;;;;7360383;19;20442;-60
2022/03/04 01:17:25;;;;;;;20.58;12.40;;;0.10;1.00;;;;;;7360627;19;20006;-60
2022/03/04 01:19:54;;;;;;;24.20;13.27;;;0.00;1.00;;;;;;7363218;19;20010;-60
2022/03/04 01:22:24;;;;;;;25.75;14.48;;;0.00;1.00;;;;;;7354178;19;20014;-59
2022/03/04 01:24:54;;;;;;;26.08;14.25;;;0.00;1.00;;;;;;7360226;19;20086;-61
2022/03/04 01:27:25;;;;;;;26.13;14.70;;;-0.10;1.00;;;;;;7383245;19;20029;-59
2022/03/04 01:29:57;;;;;;;27.13;13.93;;;-0.20;1.00;;;;;;7360848;19;20077;-59
2022/03/04 01:32:27;;;;;;;26.95;14.35;;;-0.30;1.00;;;;;;7353589;19;20026;-61
2022/03/04 01:34:57;;;;;;;24.77;14.05;;;-0.20;1.00;;;;;;7360654;19;20011;-60
2022/03/04 01:37:27;;;;;;;24.35;13.85;;;-0.10;1.00;;;;;;7359663;19;20015;-60
2022/03/04 01:39:57;;;;;;;26.13;14.32;;;-0.20;1.00;;;;;;7361619;19;20088;-60
2022/03/04 01:42:27;;;;;;;22.95;13.70;;;-0.20;1.00;;;;;;7372879;19;20007;-60
2022/03/04 01:44:59;;;;;;;24.08;13.80;;;-0.30;1.00;;;;;;7360115;19;20011;-60
2022/03/04 01:47:29;;;;;;;24.70;13.63;;;-0.20;1.00;;;;;;7361827;19;20015;-60
2022/03/04 01:49:59;;;;;;;26.50;14.30;;;-0.20;1.00;;;;;;7362104;19;20010;-60
2022/03/04 01:52:29;;;;;;;31.27;14.68;;;-0.10;1.00;;;;;;7352108;19;20020;-60
2022/03/04 01:54:59;;;;;;;24.42;13.68;;;-0.20;1.00;;;;;;7359730;19;20043;-60
2022/03/04 01:57:29;;;;;;;24.65;14.13;;;-0.20;1.00;;;;;;7382441;19;20029;-61
2022/03/04 02:00:01;;;;;;;23.95;14.30;;;-0.30;1.00;;;;;;7363134;19;20121;-61
2022/03/04 02:02:31;;;;;;;24.15;14.27;;;-0.30;1.00;;;;;;7352301;19;20019;-60
2022/03/04 02:05:02;;;;;;;26.95;14.95;;;-0.30;1.00;;;;;;7360062;19;20014;-60
2022/03/04 02:07:32;;;;;;;24.15;13.27;;;-0.20;1.00;;;;;;7360595;19;20027;-61
2022/03/04 02:10:02;;;;;;;26.38;14.00;;;-0.30;1.00;;;;;;7362567;19;20035;-60
2022/03/04 02:12:32;;;;;;;22.77;12.90;;;-0.30;1.00;;;;;;7374730;19;20015;-61
2022/03/04 02:15:08;;;;;;;26.60;13.93;;;-0.40;1.00;;;;;;7364273;19;20024;-61
2022/03/04 02:17:39;;;;;;;24.13;13.13;;;-0.40;1.00;;;;;;7366792;19;20749;-61
2022/03/04 02:20:10;;;;;;;23.25;13.93;;;-0.50;1.00;;;;;;7368285;19;20483;-60
2022/03/04 02:22:42;;;;;;;27.02;14.05;;;-0.40;1.00;;;;;;7361810;19;20081;-61
2022/03/04 02:25:12;;;;;;;24.45;13.43;;;-0.50;1.00;;;;;;7365973;19;20077;-60
2022/03/04 02:27:42;;;;;;;24.58;13.98;;;-0.40;1.00;;;;;;7387105;19;20085;-60
2022/03/04 02:30:14;;;;;;;25.55;13.77;;;-0.40;1.00;;;;;;7366091;19;20478;-61
2022/03/04 02:32:43;;;;;;;23.10;13.85;;;-0.40;1.00;;;;;;7361312;19;20021;-60
2022/03/04 02:35:13;;;;;;;20.60;12.82;;;-0.40;1.00;;;;;;7367013;19;20015;-61
2022/03/04 02:37:46;;;;;;;25.45;13.52;;;-0.40;1.00;;;;;;7365213;19;20020;-59
2022/03/04 02:40:16;;;;;;;25.55;14.45;;;-0.40;1.00;;;;;;7366883;19;20014;-60
2022/03/04 02:42:46;;;;;;;24.08;13.80;;;-0.50;1.00;;;;;;7383598;19;20031;-60
2022/03/04 02:45:18;;;;;;;24.75;14.93;;;-0.60;1.00;;;;;;7365316;19;20530;-60
2022/03/04 02:47:48;;;;;;;28.08;15.02;;;-0.30;1.00;;;;;;7365835;19;20003;-60
2022/03/04 02:50:18;;;;;;;21.92;13.68;;;-0.50;1.00;;;;;;7366142;19;20782;-60
2022/03/04 02:52:50;;;;;;;25.95;14.52;;;-0.50;1.00;;;;;;7359431;19;20014;-60
2022/03/04 02:55:21;;;;;;;22.20;13.53;;;-0.50;1.00;;;;;;7365766;19;20007;-59
2022/03/04 02:57:51;;;;;;;21.05;12.95;;;-0.40;1.00;;;;;;7364201;19;20268;-61
2022/03/04 03:00:21;;;;;;;24.63;13.68;;;-0.60;1.00;;;;;;7385009;19;20495;-61
2022/03/04 03:02:52;;;;;;;30.60;15.13;;;-0.60;1.00;;;;;;7358034;19;20006;-60
2022/03/04 03:05:22;;;;;;;24.33;14.00;;;-0.60;1.00;;;;;;7365956;19;20369;-60
2022/03/04 03:07:54;;;;;;;29.02;14.10;;;-0.60;1.00;;;;;;7368184;19;20011;-60
2022/03/04 03:10:31;;;;;;;22.77;13.57;;;-0.60;1.00;;;;;;7364672;19;20045;-60
2022/03/04 03:13:01;;;;;;;25.65;13.93;;;-0.70;1.00;;;;;;7357008;19;20025;-61
2022/03/04 03:15:31;;;;;;;29.92;15.23;;;-0.70;1.00;;;;;;7385756;19;20070;-60
2022/03/04 03:18:01;;;;;;;32.60;15.45;;;-0.70;1.00;;;;;;7363837;19;20015;-61
2022/03/04 03:20:31;;;;;;;27.88;15.35;;;-0.70;1.00;;;;;;7365631;19;20062;-60
2022/03/04 03:23:03;;;;;;;28.02;14.57;;;-0.70;1.00;;;;;;7358094;19;20006;-60
2022/03/04 03:25:33;;;;;;;25.73;15.25;;;-0.70;1.00;;;;;;7363224;19;20015;-61
2022/03/04 03:28:03;;;;;;;31.23;14.82;;;-0.70;1.00;;;;;;7365563;19;20018;-61
2022/03/04 03:30:34;;;;;;;24.67;13.20;;;-0.60;1.00;;;;;;7385566;19;20446;-60
2022/03/04 03:33:04;;;;;;;22.88;13.85;;;-0.70;1.00;;;;;;7359936;19;20464;-60
2022/03/04 03:35:33;;;;;;;26.05;14.38;;;-0.70;1.00;;;;;;7363080;19;20540;-60
2022/03/04 03:38:06;;;;;;;27.90;15.73;;;-0.80;1.00;;;;;;7364130;19;20085;-60
2022/03/04 03:40:36;;;;;;;23.15;14.15;;;-1.00;1.00;;;;;;7365231;19;20015;-60
2022/03/04 03:43:26;;;;;;;24.45;14.90;;;-1.10;1.00;;;;;;7360487;19;20023;-60
2022/03/04 03:45:56;;;;;;;29.90;14.75;;;-1.10;1.00;;;;;;7385869;19;20070;-60
2022/03/04 03:48:26;;;;;;;31.50;14.93;;;-1.10;1.00;;;;;;7363952;19;20010;-60
2022/03/04 03:50:56;;;;;;;24.30;14.82;;;-1.20;1.00;;;;;;7363546;19;20009;-60
2022/03/04 03:53:28;;;;;;;29.63;14.63;;;-1.10;1.00;;;;;;7358332;19;20525;-60
2022/03/04 03:55:58;;;;;;;23.88;14.07;;;-1.10;1.00;;;;;;7365722;19;20017;-60
2022/03/04 03:58:28;;;;;;;26.25;15.35;;;-1.20;1.00;;;;;;7385624;19;20090;-60
2022/03/04 04:00:58;;;;;;;26.42;14.65;;;-1.20;1.00;;;;;;7355570;19;20022;-60
2022/03/04 04:03:29;;;;;;;28.73;16.05;;;-1.30;1.00;;;;;;7358874;19;20039;-60
2022/03/04 04:05:59;;;;;;;31.10;16.42;;;-1.30;1.00;;;;;;7365541;19;20039;-59
2022/03/04 04:08:31;;;;;;;29.95;17.27;;;-1.40;1.00;;;;;;7362832;19;20017;-59
2022/03/04 04:11:02;;;;;;;30.80;17.00;;;-1.40;1.00;;;;;;7361149;19;20014;-60
2022/03/04 04:13:32;;;;;;;27.92;15.98;;;-1.40;1.00;;;;;;7360632;19;20089;-60
2022/03/04 04:16:01;;;;;;;29.38;16.20;;;-1.40;1.00;;;;;;7376998;19;20035;-60
2022/03/04 04:18:31;;;;;;;30.08;16.80;;;-1.40;1.00;;;;;;7382450;19;20019;-60
2022/03/04 04:21:02;;;;;;;25.02;15.35;;;-1.30;1.00;;;;;;7359431;19;20078;-59
2022/03/04 04:23:35;;;;;;;29.17;16.15;;;-1.30;1.00;;;;;;7358447;19;20049;-59
2022/03/04 04:26:06;;;;;;;27.90;16.08;;;-1.40;1.00;;;;;;7364204;19;20078;-60
2022/03/04 04:28:36;;;;;;;28.08;16.08;;;-1.40;1.00;;;;;;7365017;19;20035;-60
2022/03/04 04:31:06;;;;;;;28.58;16.25;;;-1.40;1.00;;;;;;7357693;19;20015;-60
2022/03/04 04:33:36;;;;;;;27.00;16.42;;;-1.20;1.00;;;;;;7380492;19;20014;-60
2022/03/04 04:36:07;;;;;;;26.83;15.70;;;-1.20;1.00;;;;;;7361611;19;20007;-61
2022/03/04 04:38:39;;;;;;;28.85;16.15;;;-1.40;1.00;;;;;;7362246;19;20102;-60
2022/03/04 04:41:09;;;;;;;27.45;16.10;;;-1.40;1.00;;;;;;7359064;19;20018;-60
2022/03/04 04:43:39;;;;;;;30.02;16.45;;;-1.30;1.00;;;;;;7358862;19;20031;-59
2022/03/04 04:46:09;;;;;;;30.27;17.17;;;-1.30;1.00;;;;;;7363391;19;20021;-60
2022/03/04 04:48:40;;;;;;;29.90;16.42;;;-1.30;1.00;;;;;;7384999;19;20031;-60
2022/03/04 04:51:10;;;;;;;27.15;16.00;;;-1.30;1.00;;;;;;7358330;19;20474;-60
2022/03/04 04:53:43;;;;;;;26.65;17.02;;;-1.30;1.00;;;;;;7357447;19;20747;-59
2022/03/04 04:56:13;;;;;;;26.47;16.17;;;-1.30;1.00;;;;;;7362631;19;20019;-60
2022/03/04 04:58:43;;;;;;;32.15;17.40;;;-1.30;1.00;;;;;;7361869;19;20132;-60
2022/03/04 05:01:14;;;;;;;26.60;15.85;;;-1.30;1.00;;;;;;7359975;19;20013;-60
2022/03/04 05:03:45;;;;;;;29.20;15.88;;;-1.30;1.00;;;;;;7380464;19;20014;-61
2022/03/04 05:06:15;;;;;;;27.00;14.63;;;-1.40;1.00;;;;;;7360424;19;20016;-60
2022/03/04 05:08:48;;;;;;;32.95;17.02;;;-1.30;1.00;;;;;;7360411;19;20086;-60
2022/03/04 05:11:18;;;;;;;27.55;16.33;;;-1.40;1.00;;;;;;7357905;19;20428;-60
2022/03/04 05:13:50;;;;;;;28.83;17.08;;;-1.30;1.00;;;;;;7360116;19;20074;-60
2022/03/04 05:16:22;;;;;;;25.38;15.90;;;-1.20;1.00;;;;;;7360735;19;20019;-60
2022/03/04 05:18:52;;;;;;;29.48;16.45;;;-1.30;1.00;;;;;;7382073;19;20022;-60
2022/03/04 05:21:22;;;;;;;31.92;16.75;;;-1.30;1.00;;;;;;7356339;19;20015;-60
2022/03/04 05:24:03;;;;;;;29.50;16.63;;;-1.30;1.00;;;;;;7359808;19;20007;-60
2022/03/04 05:26:35;;;;;;;31.33;16.92;;;-1.40;1.00;;;;;;7361178;19;20090;-60
2022/03/04 05:29:09;;;;;;;28.73;17.50;;;-1.40;1.00;;;;;;7361141;19;20081;-59
2022/03/04 05:31:39;;;;;;;34.22;16.75;;;-1.40;1.00;;;;;;7358349;19;20011;-60
2022/03/04 05:34:10;;;;;;;31.02;17.90;;;-1.40;1.00;;;;;;7358599;19;20011;-60
2022/03/04 05:36:40;;;;;;;27.63;15.55;;;-1.40;1.00;;;;;;7382534;19;20048;-60
2022/03/04 05:39:12;;;;;;;27.40;16.83;;;-1.40;1.00;;;;;;7359755;19;20241;-60
2022/03/04 05:41:42;;;;;;;29.80;17.67;;;-1.50;1.00;;;;;;7355648;19;20015;-60
2022/03/04 05:44:12;;;;;;;32.55;18.75;;;-1.60;1.00;;;;;;7357998;19;20027;-60
2022/03/04 05:46:42;;;;;;;29.92;17.98;;;-1.60;1.00;;;;;;7361675;19;20017;-60
2022/03/04 05:49:12;;;;;;;30.75;17.75;;;-1.70;1.00;;;;;;7363400;19;20018;-60
2022/03/04 05:51:42;;;;;;;28.55;19.20;;;-1.70;1.00;;;;;;7383323;19;20095;-61
2022/03/04 05:54:14;;;;;;;31.27;18.23;;;-1.70;1.00;;;;;;7363501;19;20082;-60
2022/03/04 05:56:44;;;;;;;34.35;18.63;;;-1.70;1.00;;;;;;7368843;19;20090;-60
2022/03/04 05:59:14;;;;;;;29.98;18.17;;;-1.70;1.00;;;;;;7367550;19;20533;-60
2022/03/04 06:01:44;;;;;;;33.45;18.45;;;-1.70;1.00;;;;;;7363633;19;20025;-61
2022/03/04 06:04:15;;;;;;;32.38;18.10;;;-1.60;1.00;;;;;;7362513;19;20022;-60
2022/03/04 06:06:45;;;;;;;33.95;18.02;;;-1.50;1.00;;;;;;7389664;19;20077;-59
2022/03/04 06:09:17;;;;;;;29.90;16.77;;;-1.50;1.00;;;;;;7367081;19;20021;-60
2022/03/04 06:11:47;;;;;;;31.63;18.23;;;-1.50;1.00;;;;;;7364522;19;20007;-60
2022/03/04 06:14:17;;;;;;;29.88;17.88;;;-1.40;1.00;;;;;;7362983;19;20521;-60
2022/03/04 06:16:47;;;;;;;31.00;17.45;;;-1.40;1.00;;;;;;7367239;19;20618;-59
2022/03/04 06:19:17;;;;;;;32.10;17.98;;;-1.40;1.00;;;;;;7367549;19;20018;-60
2022/03/04 06:21:47;;;;;;;33.05;18.23;;;-1.40;1.00;;;;;;7386783;19;20172;-61
2022/03/04 06:24:19;;;;;;;37.05;18.85;;;-1.30;1.00;;;;;;7360935;19;20026;-60
2022/03/04 06:26:49;;;;;;;31.77;18.38;;;-1.10;1.00;;;;;;7366153;19;20011;-61
2022/03/04 06:29:19;;;;;;;42.30;24.20;;;-0.90;1.00;;;;;;7365403;19;20390;-60
2022/03/04 06:31:49;;;;;;;42.20;24.60;;;-0.80;1.00;;;;;;7364876;19;20044;-60
2022/03/04 06:34:19;;;;;;;34.45;21.50;;;-0.70;1.00;;;;;;7364583;19;20053;-60
2022/03/04 06:36:49;;;;;;;33.55;19.38;;;-0.60;1.00;;;;;;7387175;19;20015;-60
2022/03/04 06:39:21;;;;;;;33.28;18.90;;;-0.60;1.00;;;;;;7364650;19;20058;-60
2022/03/04 06:41:51;;;;;;;31.17;18.75;;;-0.60;1.00;;;;;;7361781;19;20509;-60
2022/03/04 06:44:21;;;;;;;38.22;18.63;;;-0.50;1.00;;;;;;7365429;19;20459;-60
2022/03/04 06:46:52;;;;;;;31.00;17.77;;;-0.40;1.00;;;;;;7363881;19;20010;-60
2022/03/04 06:49:22;;;;;;;32.80;17.98;;;-0.40;1.00;;;;;;7364318;19;20020;-60
2022/03/04 06:51:52;;;;;;;32.55;17.45;;;-0.40;1.00;;;;;;7382422;19;20015;-60
2022/03/04 06:54:24;;;;;;;30.23;16.85;;;-0.30;1.00;;;;;;7364112;19;20014;-61
2022/03/04 06:56:54;;;;;;;28.23;16.67;;;-0.20;1.00;;;;;;7366617;19;20108;-59
2022/03/04 06:59:24;;;;;;;36.10;17.58;;;-0.20;1.00;;;;;;7363132;19;20125;-60
2022/03/04 07:01:54;;;;;;;32.15;17.80;;;-0.10;1.00;;;;;;7359872;19;20042;-60
2022/03/04 07:04:25;;;;;;;31.23;17.08;;;0.00;1.00;;;;;;7365545;19;20018;-61
2022/03/04 07:06:54;;;;;;;33.33;18.13;;;0.10;1.00;;;;;;7389357;19;20022;-60
2022/03/04 07:09:27;;;;;;;29.13;17.38;;;0.10;1.00;;;;;;7362971;19;20084;-60
2022/03/04 07:11:57;;;;;;;31.17;16.35;;;0.20;1.00;;;;;;7357247;19;20009;-59
2022/03/04 07:14:27;;;;;;;30.55;17.45;;;0.20;1.00;;;;;;7364023;19;20010;-61
2022/03/04 07:16:57;;;;;;;29.85;17.27;;;0.30;1.00;;;;;;7366710;19;20550;-61
2022/03/04 07:19:27;;;;;;;28.58;16.77;;;0.30;1.00;;;;;;7363960;19;20542;-61
2022/03/04 07:21:57;;;;;;;33.05;17.95;;;0.40;1.00;;;;;;7378933;19;20458;-60
2022/03/04 07:24:29;;;;;;;31.63;18.33;;;0.40;1.00;;;;;;7363686;19;20086;-60
2022/03/04 07:26:59;;;;;;;36.50;18.63;;;0.40;1.00;;;;;;7364426;19;20625;-60
2022/03/04 07:29:29;;;;;;;36.17;18.88;;;0.50;1.00;;;;;;7365042;19;20007;-59
2022/03/04 07:31:59;;;;;;;27.63;17.50;;;0.50;1.00;;;;;;7356071;19;20022;-60
2022/03/04 07:34:29;;;;;;;32.10;15.93;;;0.60;1.00;;;;;;7364271;19;20086;-60
2022/03/04 07:36:59;;;;;;;50.75;18.10;;;0.70;1.00;;;;;;7386181;19;20022;-60
2022/03/04 07:39:32;;;;;;;29.75;16.77;;;0.80;1.00;;;;;;7363675;19;20014;-61
2022/03/04 07:42:01;;;;;;;27.27;16.10;;;0.80;1.00;;;;;;7355661;19;20071;-60
2022/03/04 07:44:31;;;;;;;31.35;16.85;;;0.90;1.00;;;;;;7362549;19;20018;-60
2022/03/04 07:47:01;;;;;;;36.92;18.92;;;0.90;1.00;;;;;;7362429;19;20098;-60
2022/03/04 07:49:31;;;;;;;33.10;16.77;;;1.00;1.00;;;;;;7363917;19;20673;-60
2022/03/04 07:52:01;;;;;;;34.70;17.90;;;1.10;1.00;;;;;;7376324;19;20024;-62
2022/03/04 07:54:33;;;;;;;34.83;18.70;;;1.10;1.00;;;;;;7384848;19;20033;-60
2022/03/04 07:57:04;;;;;;;32.03;17.90;;;1.20;1.00;;;;;;7364242;19;20085;-61
2022/03/04 07:59:34;;;;;;;37.33;18.17;;;1.20;1.00;;;;;;7363161;19;20444;-60
2022/03/04 08:02:04;;;;;;;32.65;17.10;;;1.10;1.00;;;;;;7358068;19;20015;-60
2022/03/04 08:04:34;;;;;;;32.03;16.40;;;1.20;1.00;;;;;;7362938;19;20775;-59
2022/03/04 08:07:05;;;;;;;33.55;18.02;;;1.40;1.00;;;;;;7363005;19;20181;-60
2022/03/04 08:09:37;;;;;;;33.40;17.65;;;1.50;1.00;;;;;;7384511;19;20441;-60
2022/03/04 08:12:09;;;;;;;32.47;17.63;;;1.50;1.00;;;;;;7354838;19;20199;-61
2022/03/04 08:14:39;;;;;;;35.00;18.80;;;1.60;1.00;;;;;;7362942;19;20044;-61
2022/03/04 08:17:09;;;;;;;36.85;18.08;;;1.80;1.00;;;;;;7363753;19;20007;-60
2022/03/04 08:19:39;;;;;;;35.33;18.75;;;1.90;1.00;;;;;;7363459;19;20073;-60
2022/03/04 08:22:09;;;;;;;31.48;16.73;;;1.90;1.00;;;;;;7356738;19;20015;-62
2022/03/04 08:24:58;;;;;;;33.75;17.88;;;2.10;1.00;;;;;;7384015;19;20013;-60
2022/03/04 08:27:28;;;;;;;33.22;17.65;;;2.20;1.00;;;;;;7364778;19;20083;-60
2022/03/04 08:29:58;;;;;;;32.30;17.70;;;2.30;1.00;;;;;;7361410;19;20471;-59
2022/03/04 08:32:28;;;;;;;34.60;17.52;;;2.30;1.00;;;;;;7354716;19;20035;-59
2022/03/04 08:35:00;;;;;;;30.05;17.52;;;2.40;1.00;;;;;;7362558;19;20007;-59
2022/03/04 08:37:30;;;;;;;31.63;17.52;;;2.60;1.00;;;;;;7362852;19;20010;-60
2022/03/04 08:40:02;;;;;;;30.50;17.17;;;2.70;1.00;;;;;;7382149;19;20550;-60
2022/03/04 08:42:32;;;;;;;34.33;18.70;;;2.70;1.00;;;;;;7354104;19;20335;-63
2022/03/04 08:45:02;;;;;;;32.22;17.73;;;2.90;1.00;;;;;;7360749;19;20074;-60
2022/03/04 08:47:36;;;;;;;32.60;17.48;;;2.80;1.00;;;;;;7363405;19;20018;-60
2022/03/04 08:50:06;;;;;;;32.03;17.80;;;2.90;1.00;;;;;;7362073;19;20010;-60
2022/03/04 08:52:37;;;;;;;31.65;17.38;;;3.00;1.00;;;;;;7353623;19;20014;-60
2022/03/04 08:55:14;;;;;;;30.00;17.58;;;3.00;1.00;;;;;;7359932;19;20018;-62
2022/03/04 08:57:44;;;;;;;32.70;19.35;;;3.10;1.00;;;;;;7385473;19;20649;-60
2022/03/04 09:00:17;;;;;;;31.52;17.45;;;3.20;1.00;;;;;;7362818;19;20018;-60
2022/03/04 09:02:47;;;;;;;35.88;18.23;;;3.20;1.00;;;;;;7356384;19;20014;-60
2022/03/04 09:05:18;;;;;;;36.58;19.42;;;3.20;1.00;;;;;;7359605;19;20048;-59
2022/03/04 09:07:47;;;;;;;36.58;19.63;;;3.30;1.00;;;;;;7361933;19;20054;-60
2022/03/04 09:10:20;;;;;;;31.80;18.20;;;3.30;1.00;;;;;;7363096;19;20423;-61
2022/03/04 09:12:50;;;;;;;34.92;18.92;;;3.40;1.00;;;;;;7378425;19;20074;-60
2022/03/04 09:15:20;;;;;;;34.22;18.67;;;3.50;1.00;;;;;;7358167;19;20101;-60
2022/03/04 09:17:50;;;;;;;32.13;17.02;;;3.40;1.00;;;;;;7361240;19;20007;-61
2022/03/04 09:20:20;;;;;;;34.00;18.98;;;3.40;1.00;;;;;;7361778;19;20101;-60
2022/03/04 09:22:53;;;;;;;42.05;19.05;;;3.60;1.00;;;;;;7355400;19;20007;-61
2022/03/04 09:25:28;;;;;;;35.35;18.85;;;3.60;1.00;;;;;;7358547;19;20093;-61
2022/03/04 09:27:59;;;;;;;37.05;19.35;;;3.80;1.00;;;;;;7382170;19;20061;-61
2022/03/04 09:30:31;;;;;;;37.28;18.80;;;3.90;1.00;;;;;;7359358;19;20006;-61
2022/03/04 09:33:01;;;;;;;37.22;20.40;;;3.80;1.00;;;;;;7357582;19;20456;-60
2022/03/04 09:35:30;;;;;;;36.00;19.13;;;3.70;1.00;;;;;;7360212;19;20540;-60
2022/03/04 09:38:00;;;;;;;36.65;19.02;;;3.90;1.00;;;;;;7360673;19;20021;-61
2022/03/04 09:40:34;;;;;;;40.65;18.63;;;4.00;1.00;;;;;;7359365;19;20015;-60
2022/03/04 09:43:09;;;;;;;37.72;19.58;;;4.10;1.00;;;;;;7355898;19;20384;-61
2022/03/04 09:45:38;;;;;;;32.63;18.38;;;4.20;1.00;;;;;;7381420;19;20043;-60
2022/03/04 09:48:09;;;;;;;37.15;20.17;;;4.30;1.00;;;;;;7361977;19;20038;-60
2022/03/04 09:50:40;;;;;;;38.33;20.25;;;4.20;1.00;;;;;;7359091;19;20608;-61
2022/03/04 09:53:11;;;;;;;34.67;18.77;;;4.40;1.00;;;;;;7353210;19;20078;-61
2022/03/04 09:55:45;;;;;;;36.78;19.45;;;4.50;1.00;;;;;;7362172;19;20113;-61
2022/03/04 09:58:16;;;;;;;37.88;19.45;;;4.50;1.00;;;;;;7361009;19;20022;-60
2022/03/04 10:00:48;;;;;;;31.42;17.75;;;4.60;1.00;;;;;;7378368;19;20490;-61
2022/03/04 10:03:43;;;;;;;36.60;19.50;;;4.60;1.00;;;;;;7352232;19;20011;-60
2022/03/04 10:06:13;;;;;;;30.10;17.60;;;4.60;1.00;;;;;;7358973;19;20011;-60
2022/03/04 10:08:44;;;;;;;35.80;19.23;;;4.90;1.00;;;;;;7360947;19;20018;-61
2022/03/04 10:11:28;;;;;;;35.53;19.65;;;4.90;1.00;;;;;;7356389;19;20013;-61
2022/03/04 10:13:59;;;;;;;33.55;17.92;;;5.00;1.00;;;;;;7354920;19;20468;-61
2022/03/04 10:16:33;;;;;;;32.92;18.70;;;5.10;1.00;;;;;;7358473;19;20019;-60
2022/03/04 10:19:07;;;;;;;35.05;19.35;;;5.00;1.00;;;;;;7359399;19;20116;-61
2022/03/04 10:21:52;;;;;;;32.30;19.33;;;5.00;1.00;;;;;;7376165;19;20706;-60
2022/03/04 10:24:24;;;;;;;32.80;18.23;;;5.00;1.00;;;;;;7357881;19;20010;-61
2022/03/04 10:27:08;;;;;;;35.47;20.00;;;5.20;1.00;;;;;;7360100;19;20010;-61
2022/03/04 10:29:40;;;;;;;35.50;19.55;;;5.10;1.00;;;;;;7360232;19;20010;-61
2022/03/04 10:32:18;;;;;;;32.42;18.02;;;5.50;1.00;;;;;;7350714;19;20010;-60
2022/03/04 10:34:55;;;;;;;35.22;18.63;;;5.20;1.00;;;;;;7360386;19;20391;-59
2022/03/04 10:37:39;;;;;;;36.20;18.60;;;5.30;1.00;;;;;;7366032;19;20014;-61
2022/03/04 10:40:13;;;;;;;32.67;19.23;;;5.60;1.00;;;;;;7368173;19;20498;-60
2022/03/04 10:42:48;;;;;;;35.83;18.23;;;5.50;1.00;;;;;;7379686;19;20125;-60
2022/03/04 10:45:21;;;;;;;32.45;18.75;;;5.60;1.00;;;;;;7363331;19;20043;-61
2022/03/04 10:47:54;;;;;;;32.35;18.63;;;5.80;1.00;;;;;;7366129;19;20121;-61
2022/03/04 10:50:32;;;;;;;33.47;18.73;;;5.80;1.00;;;;;;7364335;19;20470;-62
2022/03/04 10:53:05;;;;;;;35.05;17.67;;;5.90;1.00;;;;;;7360840;19;20129;-61
2022/03/04 10:55:42;;;;;;;31.92;16.25;;;5.80;1.00;;;;;;7364217;19;20439;-61
2022/03/04 10:58:20;;;;;;;29.85;17.08;;;6.00;1.00;;;;;;7364167;19;20022;-60
2022/03/04 11:00:52;;;;;;;33.58;18.20;;;6.30;1.00;;;;;;7385800;19;20010;-60
2022/03/04 11:03:23;;;;;;;34.22;19.23;;;6.30;1.00;;;;;;7358470;19;20014;-60
2022/03/04 11:05:55;;;;;;;36.47;18.30;;;6.30;1.00;;;;;;7364157;19;20027;-61
2022/03/04 11:08:26;;;;;;;31.88;18.58;;;6.10;1.00;;;;;;7363120;19;20077;-60
2022/03/04 11:10:57;;;;;;;30.85;17.75;;;6.30;1.00;;;;;;7363662;19;20450;-61
2022/03/04 11:13:32;;;;;;;31.02;17.77;;;6.60;1.00;;;;;;7358604;19;20038;-62
2022/03/04 11:16:02;;;;;;;30.65;18.63;;;6.80;1.00;;;;;;7377587;19;20018;-63
2022/03/04 11:18:32;;;;;;;29.90;17.52;;;6.60;1.00;;;;;;7387435;19;20027;-61
2022/03/04 11:21:04;;;;;;;32.95;18.33;;;6.30;1.00;;;;;;7361360;19;20477;-60
2022/03/04 11:23:37;;;;;;;28.38;17.55;;;6.40;1.00;;;;;;7361170;19;20041;-61
2022/03/04 11:26:10;;;;;;;30.60;18.75;;;6.50;1.00;;;;;;7364073;19;20017;-61
2022/03/04 11:28:49;;;;;;;31.67;18.80;;;6.20;1.00;;;;;;7361464;19;20012;-61
2022/03/04 11:31:22;;;;;;;28.67;17.77;;;6.30;1.00;;;;;;7359878;19;20845;-62
2022/03/04 11:33:54;;;;;;;27.67;16.05;;;6.50;1.00;;;;;;7380609;19;20082;-60
2022/03/04 11:36:25;;;;;;;25.38;15.70;;;6.40;1.00;;;;;;7361637;19;20027;-61
2022/03/04 11:39:04;;;;;;;31.55;17.25;;;6.50;1.00;;;;;;7363815;19;20059;-61
2022/03/04 11:41:37;;;;;;;28.17;16.20;;;6.70;1.00;;;;;;7360346;19;20082;-60
2022/03/04 11:44:18;;;;;;;31.08;16.50;;;6.90;1.00;;;;;;7361102;19;20044;-62
2022/03/04 11:46:51;;;;;;;29.40;17.02;;;6.70;1.00;;;;;;7363358;19;20039;-61
2022/03/04 11:49:27;;;;;;;29.38;16.45;;;7.20;1.00;;;;;;7363244;19;20015;-61
2022/03/04 11:52:24;;;;;;;30.65;17.60;;;7.20;1.00;;;;;;7379569;19;20108;-63
2022/03/04 11:55:16;;;;;;;32.78;17.20;;;7.10;1.00;;;;;;7363261;19;20027;-60
2022/03/04 11:57:47;;;;;;;26.83;16.33;;;7.40;1.00;;;;;;7364733;19;20074;-61
2022/03/04 12:00:44;;;;;;;27.35;15.93;;;7.20;1.00;;;;;;7364594;19;21080;-62
2022/03/04 12:03:21;;;;;;;28.20;16.60;;;7.10;1.00;;;;;;7354484;19;20039;-62
2022/03/04 12:05:53;;;;;;;27.13;16.13;;;7.00;1.00;;;;;;7361080;19;20010;-62
2022/03/04 12:08:23;;;;;;;26.25;15.93;;;7.20;1.00;;;;;;7363226;19;20010;-62
2022/03/04 12:13:51;;;;;;;25.20;14.15;;;7.30;1.00;;;;;;7359851;19;20007;-61
2022/03/04 12:16:26;;;;;;;26.27;14.25;;;7.30;1.00;;;;;;7362698;19;20020;-61
2022/03/04 12:18:59;;;;;;;30.02;14.52;;;7.50;1.00;;;;;;7381869;19;20088;-61
2022/03/04 12:21:29;;;;;;;27.67;14.40;;;7.30;1.00;;;;;;7356865;19;20021;-62
2022/03/04 12:24:03;;;;;;;25.02;14.15;;;7.40;1.00;;;;;;7356746;19;20019;-62
2022/03/04 12:26:45;;;;;;;25.58;14.02;;;7.60;1.00;;;;;;7363905;19;20025;-61
2022/03/04 12:29:17;;;;;;;24.60;14.23;;;7.30;1.00;;;;;;7362611;19;20487;-61
2022/03/04 12:31:49;;;;;;;26.45;14.98;;;7.50;1.00;;;;;;7357896;19;20010;-62
2022/03/04 12:34:22;;;;;;;29.30;15.82;;;7.50;1.00;;;;;;7359709;19;20138;-62
2022/03/04 12:36:54;;;;;;;26.23;15.52;;;7.40;1.00;;;;;;7386658;19;20052;-61
2022/03/04 12:39:25;;;;;;;26.77;15.77;;;7.50;1.00;;;;;;7364358;19;20010;-60
2022/03/04 12:41:58;;;;;;;25.80;14.68;;;7.50;1.00;;;;;;7357485;19;20018;-59
2022/03/04 12:44:30;;;;;;;22.37;13.17;;;7.70;1.00;;;;;;7361979;19;20018;-60
2022/03/04 12:47:03;;;;;;;21.63;13.57;;;7.60;1.00;;;;;;7362449;19;20267;-61
2022/03/04 12:49:35;;;;;;;20.27;13.02;;;7.80;1.00;;;;;;7362290;19;20082;-60
2022/03/04 12:52:06;;;;;;;24.15;13.85;;;7.70;1.00;;;;;;7352182;19;20014;-61
2022/03/04 12:54:36;;;;;;;25.15;14.13;;;7.90;1.00;;;;;;7379894;19;20078;-62
2022/03/04 12:57:07;;;;;;;23.70;13.60;;;8.00;1.00;;;;;;7360953;19;20011;-60
2022/03/04 12:59:47;;;;;;;20.13;12.35;;;7.90;1.00;;;;;;7360555;19;20018;-60
2022/03/04 13:02:20;;;;;;;21.08;11.65;;;7.90;1.00;;;;;;7352393;19;20565;-61
2022/03/04 13:05:00;;;;;;;23.40;12.20;;;7.90;1.00;;;;;;7359783;19;20142;-61
2022/03/04 13:07:30;;;;;;;24.67;12.48;;;8.00;1.00;;;;;;7359789;19;20392;-60
2022/03/04 13:10:01;;;;;;;28.20;12.70;;;8.00;1.00;;;;;;7382338;19;20413;-61